Time;durP1;ratioP1;P1;durP2;ratioP2;P2;SDS_P1;SDS_P2;PMS_P1;PMS_P2;Temp;Humidity;BMP_temperature;BMP_pressure;BME280_temperature;BME280_humidity;BME280_pressure;Samples;Min_cycle;Max_cycle;Signal;HPM_P1;HPM_P2
2021/09/04 00:00:23;;;;;;;10.95;9.00;;;14.90;96.00;;;;;;5053585;28;20317;-80
2021/09/04 00:02:51;;;;;;;9.23;8.38;;;14.90;96.00;;;;;;5061797;28;20214;-80
2021/09/04 00:05:18;;;;;;;10.55;9.00;;;14.90;96.10;;;;;;5068557;28;20201;-82
2021/09/04 00:07:45;;;;;;;10.05;8.10;;;14.90;96.70;;;;;;5064195;28;20285;-80
2021/09/04 00:10:13;;;;;;;11.60;8.82;;;14.80;96.30;;;;;;5053764;28;20309;-80
2021/09/04 00:12:39;;;;;;;11.35;8.95;;;14.80;96.60;;;;;;5053626;28;20209;-79
2021/09/04 00:15:08;;;;;;;12.75;9.40;;;14.80;96.90;;;;;;5054338;28;20214;-80
2021/09/04 00:17:35;;;;;;;11.98;9.00;;;14.70;96.80;;;;;;5055461;28;20692;-80
2021/09/04 00:20:04;;;;;;;10.48;8.77;;;14.80;96.90;;;;;;5059434;28;20217;-80
2021/09/04 00:22:31;;;;;;;11.55;9.23;;;14.70;96.80;;;;;;5056659;28;20205;-80
2021/09/04 00:24:58;;;;;;;11.13;9.60;;;14.70;96.30;;;;;;5056231;28;20240;-81
2021/09/04 00:27:25;;;;;;;10.52;8.88;;;14.80;95.90;;;;;;5056044;28;20266;-79
2021/09/04 00:29:52;;;;;;;12.02;9.95;;;14.80;95.60;;;;;;5055742;28;20217;-79
2021/09/04 00:32:19;;;;;;;11.50;9.52;;;14.80;95.50;;;;;;5053119;28;20661;-79
2021/09/04 00:34:46;;;;;;;10.18;8.55;;;14.70;95.50;;;;;;5059665;28;20225;-81
2021/09/04 00:37:14;;;;;;;11.90;9.13;;;14.70;95.80;;;;;;5056185;28;20271;-82
2021/09/04 00:39:41;;;;;;;11.60;10.05;;;14.70;96.20;;;;;;5056013;28;20202;-80
2021/09/04 00:42:08;;;;;;;10.32;9.20;;;14.60;96.20;;;;;;5055547;28;20701;-78
2021/09/04 00:44:35;;;;;;;9.40;8.50;;;14.50;96.70;;;;;;5053641;28;20305;-79
2021/09/04 00:47:04;;;;;;;10.27;9.20;;;14.50;97.30;;;;;;5054352;28;20198;-80
2021/09/04 00:49:32;;;;;;;12.27;10.05;;;14.50;97.80;;;;;;5056063;28;20201;-80
2021/09/04 00:51:59;;;;;;;10.88;9.55;;;14.40;97.90;;;;;;5055680;28;20721;-80
2021/09/04 00:54:28;;;;;;;13.00;8.85;;;14.40;98.20;;;;;;5061739;28;20233;-82
2021/09/04 00:56:55;;;;;;;10.32;9.32;;;14.40;98.30;;;;;;5055131;28;20315;-79
2021/09/04 00:59:22;;;;;;;11.00;9.20;;;14.40;98.20;;;;;;5054103;28;20308;-79
2021/09/04 01:01:49;;;;;;;11.50;9.70;;;14.40;98.30;;;;;;5073261;28;20761;-79
2021/09/04 01:04:16;;;;;;;10.27;9.18;;;14.40;97.70;;;;;;5065033;28;20215;-79
2021/09/04 01:06:43;;;;;;;11.70;9.18;;;14.40;97.70;;;;;;5055564;28;20232;-79
2021/09/04 01:09:10;;;;;;;9.60;8.65;;;14.40;97.70;;;;;;5056481;28;20201;-79
2021/09/04 01:11:38;;;;;;;10.35;8.40;;;14.30;97.50;;;;;;5061151;28;20227;-79
2021/09/04 01:14:05;;;;;;;11.55;8.80;;;14.30;97.50;;;;;;5061164;28;20301;-80
2021/09/04 01:16:35;;;;;;;9.43;8.40;;;14.30;97.30;;;;;;5059245;28;20225;-80
2021/09/04 01:19:03;;;;;;;10.52;8.38;;;14.30;97.20;;;;;;5056483;28;20280;-79
2021/09/04 01:21:30;;;;;;;9.93;8.30;;;14.30;96.70;;;;;;5056825;28;20254;-80
2021/09/04 01:23:57;;;;;;;12.43;7.97;;;14.30;96.30;;;;;;5056359;28;20210;-80
2021/09/04 01:26:27;;;;;;;9.77;8.43;;;14.40;95.70;;;;;;5056645;28;20267;-80
2021/09/04 01:28:55;;;;;;;9.60;8.60;;;14.40;95.10;;;;;;5056839;28;20634;-80
2021/09/04 01:31:22;;;;;;;11.23;8.35;;;14.40;94.90;;;;;;5056573;28;20332;-80
2021/09/04 01:33:50;;;;;;;10.90;7.80;;;14.40;94.60;;;;;;5057757;28;20209;-80
2021/09/04 01:36:29;;;;;;;9.25;8.15;;;14.50;94.30;;;;;;5075934;28;20235;-79
2021/09/04 01:38:56;;;;;;;11.38;7.63;;;14.50;93.90;;;;;;5075875;28;20237;-79
2021/09/04 01:41:25;;;;;;;10.43;9.23;;;14.50;93.80;;;;;;5076024;28;20780;-80
2021/09/04 01:43:52;;;;;;;9.35;8.20;;;14.40;94.10;;;;;;5075044;28;20256;-78
2021/09/04 01:46:19;;;;;;;9.43;8.38;;;14.40;94.40;;;;;;5076588;28;20326;-79
2021/09/04 01:48:47;;;;;;;12.65;8.32;;;14.40;94.60;;;;;;5075980;28;20207;-79
2021/09/04 01:51:14;;;;;;;9.38;8.32;;;14.30;94.90;;;;;;5076110;28;20231;-81
2021/09/04 01:53:41;;;;;;;9.30;8.40;;;14.30;94.90;;;;;;5075831;28;20209;-79
2021/09/04 01:56:09;;;;;;;8.95;8.05;;;14.30;94.90;;;;;;5078280;28;20252;-79
2021/09/04 01:58:37;;;;;;;9.68;8.45;;;14.20;95.00;;;;;;5067880;28;20704;-79
2021/09/04 02:01:04;;;;;;;11.70;8.60;;;14.20;95.30;;;;;;5059611;28;20490;-80
2021/09/04 02:03:31;;;;;;;9.52;8.07;;;14.20;95.30;;;;;;5056532;28;20248;-79
2021/09/04 02:05:58;;;;;;;10.07;8.98;;;14.20;94.90;;;;;;5055284;28;20298;-79
2021/09/04 02:08:25;;;;;;;8.85;7.95;;;14.20;95.00;;;;;;5058213;28;20206;-79
2021/09/04 02:10:52;;;;;;;9.25;8.25;;;14.20;94.90;;;;;;5064804;28;20242;-80
2021/09/04 02:13:19;;;;;;;8.23;7.43;;;14.20;95.00;;;;;;5068485;28;20291;-80
2021/09/04 02:15:48;;;;;;;10.98;7.78;;;14.20;95.30;;;;;;5059729;28;20231;-82
2021/09/04 02:18:14;;;;;;;11.07;8.05;;;14.20;95.10;;;;;;5061431;28;20215;-79
2021/09/04 02:20:41;;;;;;;10.00;8.40;;;14.20;94.90;;;;;;5057722;28;20233;-80
2021/09/04 02:23:09;;;;;;;10.13;8.57;;;14.10;95.10;;;;;;5059297;28;20301;-79
2021/09/04 02:25:36;;;;;;;8.50;7.30;;;14.10;95.30;;;;;;5058799;28;20230;-79
2021/09/04 02:28:03;;;;;;;9.30;8.07;;;14.00;95.60;;;;;;5059260;28;20449;-79
2021/09/04 02:30:30;;;;;;;10.95;8.38;;;14.00;95.90;;;;;;5065070;28;20261;-80
2021/09/04 02:32:59;;;;;;;10.27;7.50;;;14.00;96.50;;;;;;5079013;28;20273;-79
2021/09/04 02:35:26;;;;;;;10.05;7.70;;;14.00;96.50;;;;;;5086279;28;20204;-79
2021/09/04 02:37:52;;;;;;;10.02;8.15;;;13.90;96.50;;;;;;5067831;28;20230;-79
2021/09/04 02:40:20;;;;;;;10.40;8.27;;;13.90;96.50;;;;;;5065762;28;20324;-80
2021/09/04 02:42:47;;;;;;;8.75;7.85;;;13.80;96.70;;;;;;5070533;28;20224;-81
2021/09/04 02:45:14;;;;;;;9.45;7.70;;;13.80;97.30;;;;;;5074948;28;20192;-81
2021/09/04 02:47:41;;;;;;;10.50;8.10;;;13.80;97.50;;;;;;5078696;28;20191;-82
2021/09/04 02:50:10;;;;;;;10.02;9.02;;;13.80;97.70;;;;;;5078206;28;20194;-80
2021/09/04 02:52:37;;;;;;;10.27;9.20;;;13.80;97.90;;;;;;5069964;28;20225;-79
2021/09/04 02:55:05;;;;;;;13.82;8.10;;;13.80;97.70;;;;;;5078513;28;20213;-82
2021/09/04 02:57:32;;;;;;;10.15;8.05;;;13.80;97.50;;;;;;5079010;28;20213;-84
2021/09/04 02:59:59;;;;;;;10.05;8.98;;;13.70;97.60;;;;;;5074012;28;20195;-79
2021/09/04 03:02:25;;;;;;;9.10;8.20;;;13.70;98.20;;;;;;5059515;28;20274;-80
2021/09/04 03:04:52;;;;;;;10.10;8.52;;;13.60;98.20;;;;;;5066455;28;20700;-79
2021/09/04 03:07:21;;;;;;;9.63;8.20;;;13.60;98.20;;;;;;5075125;28;20266;-80
2021/09/04 03:09:47;;;;;;;8.73;7.82;;;13.60;98.70;;;;;;5064620;28;20295;-79
2021/09/04 03:12:14;;;;;;;8.80;7.93;;;13.50;99.10;;;;;;5057199;28;20269;-79
2021/09/04 03:14:41;;;;;;;9.75;8.70;;;13.50;99.30;;;;;;5056543;28;20571;-80
2021/09/04 03:17:08;;;;;;;9.90;8.90;;;13.50;99.70;;;;;;5055987;28;20257;-80
2021/09/04 03:19:35;;;;;;;11.13;9.23;;;13.40;99.80;;;;;;5058318;28;20198;-80
2021/09/04 03:22:03;;;;;;;11.10;8.77;;;13.40;99.80;;;;;;5063677;28;20381;-80
2021/09/04 03:24:31;;;;;;;10.45;8.65;;;13.40;99.90;;;;;;5059859;28;20202;-79
2021/09/04 03:26:58;;;;;;;15.60;8.52;;;13.30;99.90;;;;;;5053966;28;20295;-79
2021/09/04 03:29:25;;;;;;;9.80;8.80;;;13.30;99.90;;;;;;5055281;28;20206;-80
2021/09/04 03:31:52;;;;;;;9.70;8.80;;;13.20;99.90;;;;;;5108253;22;20260;-78
2021/09/04 03:34:19;;;;;;;11.02;9.93;;;13.20;99.90;;;;;;5080326;28;20297;-79
2021/09/04 03:36:46;;;;;;;9.80;8.65;;;13.10;99.90;;;;;;5084173;28;20203;-81
2021/09/04 03:39:13;;;;;;;10.40;9.30;;;13.00;99.90;;;;;;5085857;28;20659;-81
2021/09/04 03:41:41;;;;;;;14.27;8.93;;;13.00;99.90;;;;;;5065372;28;20237;-78
2021/09/04 03:44:08;;;;;;;10.93;9.38;;;12.90;99.90;;;;;;5079873;28;20205;-79
2021/09/04 03:46:35;;;;;;;11.50;10.30;;;12.80;99.90;;;;;;5077097;28;20204;-80
2021/09/04 03:49:02;;;;;;;13.32;9.95;;;12.80;99.90;;;;;;5080821;28;20234;-78
2021/09/04 03:54:51;;;;;;;13.80;10.10;;;12.70;99.90;;;;;;5058598;28;20738;-78
2021/09/04 03:57:20;;;;;;;11.38;10.10;;;12.70;99.90;;;;;;5063445;28;20308;-78
2021/09/04 03:59:47;;;;;;;11.98;10.50;;;12.70;99.90;;;;;;5075247;28;20291;-78
2021/09/04 04:05:51;;;;;;;11.95;9.98;;;12.60;99.90;;;;;;5074927;28;20195;-78
2021/09/04 04:08:18;;;;;;;12.35;10.45;;;12.60;99.90;;;;;;5074549;28;20239;-78
2021/09/04 04:10:45;;;;;;;11.95;10.70;;;12.50;99.90;;;;;;5076324;28;20223;-79
2021/09/04 04:13:13;;;;;;;10.70;9.60;;;12.40;99.90;;;;;;5073084;28;20322;-79
2021/09/04 04:15:40;;;;;;;11.70;9.73;;;12.50;99.90;;;;;;5091704;28;20216;-78
2021/09/04 04:18:07;;;;;;;14.10;12.52;;;12.50;99.90;;;;;;5072903;28;20497;-77
2021/09/04 04:20:34;;;;;;;11.20;10.10;;;12.40;99.90;;;;;;5075221;28;20203;-78
2021/09/04 04:23:01;;;;;;;14.93;11.77;;;12.40;99.90;;;;;;5076702;28;20203;-79
2021/09/04 04:25:28;;;;;;;14.05;11.15;;;12.40;99.90;;;;;;5057405;28;20289;-79
2021/09/04 04:27:55;;;;;;;11.85;10.43;;;12.30;99.90;;;;;;5070442;28;20254;-79
2021/09/04 04:30:23;;;;;;;14.70;12.02;;;12.30;99.90;;;;;;5086077;28;20211;-79
2021/09/04 04:32:50;;;;;;;13.15;11.75;;;12.30;99.90;;;;;;5076704;28;20239;-79
2021/09/04 04:35:17;;;;;;;12.68;10.40;;;12.20;99.90;;;;;;5073363;28;20572;-79
2021/09/04 04:37:44;;;;;;;15.77;12.32;;;12.30;99.90;;;;;;5074560;28;20252;-77
2021/09/04 04:40:12;;;;;;;12.20;10.82;;;12.30;99.90;;;;;;5066331;28;20262;-80
2021/09/04 04:42:39;;;;;;;14.93;12.32;;;12.30;99.90;;;;;;5058561;28;20227;-78
2021/09/04 04:45:07;;;;;;;14.35;12.85;;;12.30;99.90;;;;;;5058114;28;20674;-78
2021/09/04 04:47:35;;;;;;;12.35;11.05;;;12.20;99.90;;;;;;5058448;28;20286;-79
2021/09/04 04:50:03;;;;;;;14.65;11.40;;;12.20;99.90;;;;;;5059451;28;20219;-82
2021/09/04 04:52:31;;;;;;;14.25;11.55;;;12.20;99.90;;;;;;5058900;28;20265;-79
2021/09/04 04:54:58;;;;;;;15.65;12.10;;;12.20;99.90;;;;;;5060271;28;20615;-79
2021/09/04 04:57:25;;;;;;;14.20;11.85;;;12.20;99.90;;;;;;5060139;28;20259;-80
2021/09/04 05:06:33;;;;;;;14.38;11.75;;;12.40;99.90;;;;;;4884035;29;20222;-80
2021/09/04 05:12:37;;;;;;;17.75;11.60;;;12.40;99.90;;;;;;4811438;29;20224;-79
2021/09/04 05:15:05;;;;;;;12.02;10.82;;;12.50;99.90;;;;;;4851183;29;20208;-78
2021/09/04 05:17:31;;;;;;;13.80;10.48;;;12.60;99.90;;;;;;4862694;29;20376;-78
2021/09/04 05:19:58;;;;;;;13.57;11.27;;;12.90;99.90;;;;;;4863259;29;20244;-80
2021/09/04 05:22:27;;;;;;;12.90;10.30;;;13.10;99.90;;;;;;4863599;29;20370;-79
2021/09/04 05:24:54;;;;;;;11.55;9.23;;;13.40;99.90;;;;;;4866305;29;20621;-80
2021/09/04 05:27:20;;;;;;;9.32;8.38;;;13.60;99.90;;;;;;4882293;29;20259;-80
2021/09/04 05:29:47;;;;;;;10.77;9.15;;;13.80;99.90;;;;;;4881914;29;20784;-80
2021/09/04 05:32:22;;;;;;;9.60;8.27;;;14.00;97.40;;;;;;4883352;29;20248;-77
2021/09/04 05:34:49;;;;;;;9.40;8.20;;;14.20;94.70;;;;;;4881980;29;20298;-81
2021/09/04 05:37:16;;;;;;;8.65;7.75;;;14.30;93.10;;;;;;4864653;29;20281;-81
2021/09/04 05:39:44;;;;;;;8.68;7.78;;;14.60;91.40;;;;;;4899895;28;20210;-81
2021/09/04 05:42:11;;;;;;;8.45;7.60;;;15.00;89.10;;;;;;4977031;28;20236;-79
2021/09/04 05:44:38;;;;;;;8.73;7.60;;;15.30;85.70;;;;;;4996996;28;20240;-81
2021/09/04 05:47:06;;;;;;;8.10;7.23;;;15.70;81.50;;;;;;4984984;28;20633;-80
2021/09/04 05:49:32;;;;;;;9.60;7.27;;;15.90;77.30;;;;;;5009341;28;20445;-79
2021/09/04 05:51:59;;;;;;;8.70;7.27;;;15.90;76.40;;;;;;5081682;28;20472;-82
2021/09/04 05:54:26;;;;;;;8.03;6.43;;;16.20;75.60;;;;;;5086552;28;20444;-78
2021/09/04 05:56:55;;;;;;;7.03;6.33;;;16.60;73.60;;;;;;5090875;28;20514;-79
2021/09/04 05:59:22;;;;;;;9.20;7.73;;;16.90;71.30;;;;;;5096496;28;21063;-78
2021/09/04 06:01:49;;;;;;;7.83;6.80;;;17.20;68.70;;;;;;5084260;28;20484;-77
2021/09/04 06:04:16;;;;;;;9.70;7.70;;;17.10;67.10;;;;;;5060659;28;20453;-78
2021/09/04 06:06:43;;;;;;;8.37;7.43;;;17.10;65.10;;;;;;5078593;28;20465;-80
2021/09/04 06:09:10;;;;;;;9.10;7.90;;;16.70;68.40;;;;;;5079440;28;20445;-83
2021/09/04 06:11:36;;;;;;;9.80;7.90;;;15.90;73.00;;;;;;5083187;28;20500;-83
2021/09/04 06:14:06;;;;;;;9.73;7.70;;;15.60;78.20;;;;;;5082021;28;20464;-80
2021/09/04 06:16:33;;;;;;;9.10;8.20;;;15.70;78.70;;;;;;5080297;28;20471;-79
2021/09/04 06:19:00;;;;;;;8.93;8.03;;;15.50;79.50;;;;;;5085209;28;20506;-81
2021/09/04 06:21:27;;;;;;;9.50;8.50;;;15.40;81.20;;;;;;5069147;28;20479;-79
2021/09/04 06:23:53;;;;;;;11.30;9.07;;;15.10;84.20;;;;;;5082016;28;20201;-79
2021/09/04 06:26:20;;;;;;;9.77;8.30;;;15.10;86.00;;;;;;5090393;28;20459;-81
2021/09/04 06:28:47;;;;;;;10.90;9.10;;;15.30;85.80;;;;;;5081240;28;20472;-82
2021/09/04 06:31:16;;;;;;;9.73;8.43;;;15.30;84.80;;;;;;5075626;28;20485;-79
2021/09/04 06:33:44;;;;;;;9.80;8.80;;;15.40;85.40;;;;;;5087989;28;20428;-80
2021/09/04 06:36:11;;;;;;;8.70;7.83;;;15.30;85.40;;;;;;5097308;28;20247;-80
2021/09/04 06:38:38;;;;;;;9.97;8.80;;;15.30;85.50;;;;;;5086698;28;20485;-85
2021/09/04 06:41:05;;;;;;;11.10;8.70;;;15.30;86.30;;;;;;5078787;28;20462;-85
2021/09/04 06:43:31;;;;;;;10.68;9.07;;;15.30;86.60;;;;;;5081973;28;20467;-79
2021/09/04 06:45:58;;;;;;;9.00;7.38;;;15.30;85.90;;;;;;5058869;28;20626;-79
2021/09/04 06:48:27;;;;;;;10.30;8.75;;;15.30;86.20;;;;;;5056633;28;20571;-79
2021/09/04 06:50:54;;;;;;;8.60;7.80;;;15.30;84.40;;;;;;5057905;28;20306;-78
2021/09/04 06:53:21;;;;;;;9.03;8.13;;;15.30;86.10;;;;;;5063693;28;20190;-77
2021/09/04 06:55:48;;;;;;;10.68;8.90;;;15.30;85.30;;;;;;5057610;28;20457;-81
2021/09/04 06:58:15;;;;;;;11.23;8.70;;;15.50;84.90;;;;;;5056808;28;20690;-79
2021/09/04 07:00:42;;;;;;;11.27;8.90;;;15.50;82.90;;;;;;5064650;28;20527;-80
2021/09/04 07:03:09;;;;;;;8.67;7.73;;;15.50;83.70;;;;;;5075735;28;20465;-79
2021/09/04 07:05:37;;;;;;;9.97;8.10;;;15.70;83.70;;;;;;5070029;28;20453;-80
2021/09/04 07:08:05;;;;;;;8.83;7.83;;;15.90;81.60;;;;;;5066626;28;20453;-81
2021/09/04 07:10:32;;;;;;;9.07;8.18;;;15.90;80.70;;;;;;5065419;28;20431;-80
2021/09/04 07:12:58;;;;;;;10.00;8.67;;;16.00;81.10;;;;;;5075620;28;20211;-80
2021/09/04 07:15:25;;;;;;;10.00;8.30;;;16.10;79.80;;;;;;5081489;28;20444;-79
2021/09/04 07:17:52;;;;;;;11.00;8.83;;;16.30;78.40;;;;;;5094772;28;20459;-81
2021/09/04 07:20:19;;;;;;;9.87;8.83;;;16.40;77.30;;;;;;5093259;28;20467;-81
2021/09/04 07:22:47;;;;;;;15.20;8.43;;;16.50;77.10;;;;;;5084576;28;20448;-81
2021/09/04 07:25:16;;;;;;;10.97;8.60;;;16.60;76.70;;;;;;5068624;28;20415;-81
2021/09/04 07:27:43;;;;;;;9.37;8.47;;;16.80;75.40;;;;;;5082607;28;20457;-80
2021/09/04 07:30:11;;;;;;;9.67;8.67;;;16.70;74.00;;;;;;5094632;28;20457;-82
2021/09/04 07:32:38;;;;;;;8.80;7.90;;;16.90;73.90;;;;;;5092636;28;20478;-80
2021/09/04 07:35:06;;;;;;;10.27;8.27;;;17.00;74.00;;;;;;5090308;28;20493;-80
2021/09/04 07:37:33;;;;;;;9.10;7.60;;;17.20;73.30;;;;;;5092379;28;20462;-81
2021/09/04 07:40:01;;;;;;;9.30;8.23;;;17.20;71.50;;;;;;5078369;28;20504;-81
2021/09/04 07:42:28;;;;;;;8.33;7.47;;;17.20;72.90;;;;;;5079868;28;20957;-80
2021/09/04 07:44:55;;;;;;;11.27;8.13;;;17.30;73.70;;;;;;5078491;28;20429;-79
2021/09/04 07:47:22;;;;;;;8.47;7.40;;;17.50;71.50;;;;;;5076669;28;20460;-79
2021/09/04 07:49:49;;;;;;;8.20;7.40;;;17.50;71.20;;;;;;5080642;28;20926;-80
2021/09/04 07:52:16;;;;;;;9.67;8.20;;;17.70;69.70;;;;;;5094453;28;20474;-80
2021/09/04 07:54:43;;;;;;;8.30;7.30;;;17.90;70.80;;;;;;5082285;28;20457;-79
2021/09/04 07:57:12;;;;;;;7.83;7.10;;;18.00;68.50;;;;;;5091659;28;20627;-80
2021/09/04 07:59:39;;;;;;;10.07;7.87;;;18.00;67.70;;;;;;5105500;28;20479;-82
2021/09/04 08:02:06;;;;;;;8.87;8.00;;;17.60;68.80;;;;;;5076924;28;20530;-80
2021/09/04 08:04:32;;;;;;;9.97;8.30;;;17.90;68.70;;;;;;5072011;28;20556;-78
2021/09/04 08:06:59;;;;;;;11.27;7.80;;;18.10;66.00;;;;;;5066039;28;20453;-78
2021/09/04 08:09:26;;;;;;;8.67;7.77;;;18.30;66.20;;;;;;5078127;28;20466;-78
2021/09/04 08:11:54;;;;;;;8.70;7.90;;;18.50;66.20;;;;;;5074003;28;20511;-79
2021/09/04 08:14:22;;;;;;;8.60;7.70;;;18.70;64.80;;;;;;5068914;28;20551;-78
2021/09/04 08:16:49;;;;;;;8.67;7.87;;;18.60;64.50;;;;;;5071083;28;20514;-78
2021/09/04 08:19:16;;;;;;;12.83;7.77;;;18.70;64.40;;;;;;5073221;28;20486;-77
2021/09/04 08:21:43;;;;;;;9.30;8.40;;;18.70;63.20;;;;;;5080664;28;20479;-80
2021/09/04 08:24:10;;;;;;;12.17;8.20;;;18.70;64.00;;;;;;5081681;28;20475;-81
2021/09/04 08:26:37;;;;;;;10.23;8.03;;;18.90;62.40;;;;;;5069050;28;20450;-81
2021/09/04 08:29:05;;;;;;;10.20;8.23;;;19.10;61.90;;;;;;5072224;28;20484;-80
2021/09/04 08:31:33;;;;;;;8.73;7.83;;;18.90;62.40;;;;;;5063235;28;20488;-81
2021/09/04 08:34:00;;;;;;;8.27;7.43;;;19.10;63.00;;;;;;5075174;28;20449;-77
2021/09/04 08:36:27;;;;;;;8.87;7.93;;;19.40;61.40;;;;;;5094994;28;20442;-80
2021/09/04 08:38:55;;;;;;;8.00;7.27;;;19.70;60.10;;;;;;5092009;28;20460;-80
2021/09/04 08:41:22;;;;;;;8.50;7.60;;;19.90;58.50;;;;;;5068925;28;20469;-80
2021/09/04 08:43:49;;;;;;;9.27;7.80;;;20.10;58.70;;;;;;5062376;28;20564;-81
2021/09/04 08:46:16;;;;;;;8.33;7.43;;;19.90;58.50;;;;;;5063056;28;20471;-80
2021/09/04 08:48:49;;;;;;;10.50;8.07;;;19.80;58.40;;;;;;5062019;28;20458;-81
2021/09/04 08:51:16;;;;;;;8.17;7.47;;;19.70;58.50;;;;;;5080724;28;20497;-78
2021/09/04 08:53:43;;;;;;;8.83;7.40;;;19.60;59.60;;;;;;5079944;28;20500;-79
2021/09/04 08:56:10;;;;;;;9.20;8.17;;;19.60;59.20;;;;;;5084150;28;20456;-84
2021/09/04 08:58:38;;;;;;;10.60;8.00;;;19.70;59.70;;;;;;5096507;28;20467;-81
2021/09/04 09:01:15;;;;;;;9.20;8.03;;;19.90;59.10;;;;;;5091595;28;20490;-75
2021/09/04 09:03:45;;;;;;;11.00;7.87;;;20.20;58.80;;;;;;5096602;28;20478;-77
2021/09/04 09:06:12;;;;;;;9.13;8.03;;;20.10;58.70;;;;;;5089556;28;20440;-78
2021/09/04 09:08:43;;;;;;;9.40;8.33;;;20.10;58.70;;;;;;5094420;28;20431;-77
2021/09/04 09:11:11;;;;;;;9.77;7.73;;;20.30;58.90;;;;;;5096093;28;20450;-82
2021/09/04 09:13:47;;;;;;;9.67;8.13;;;20.50;58.40;;;;;;5086488;28;20435;-79
2021/09/04 09:16:17;;;;;;;8.70;7.80;;;20.60;57.30;;;;;;5086394;28;20483;-82
2021/09/04 09:18:56;;;;;;;8.40;7.60;;;20.80;56.70;;;;;;5086084;28;20984;-82
2021/09/04 09:21:27;;;;;;;8.50;7.60;;;20.90;57.50;;;;;;5085534;28;20458;-82
2021/09/04 09:24:08;;;;;;;11.53;8.50;;;20.90;56.50;;;;;;5068576;28;20455;-80
2021/09/04 09:26:35;;;;;;;10.00;7.57;;;21.00;55.90;;;;;;5066364;28;20457;-79
2021/09/04 09:29:16;;;;;;;8.93;8.03;;;21.00;56.20;;;;;;5087489;28;20443;-81
2021/09/04 09:31:43;;;;;;;8.13;7.10;;;21.00;55.70;;;;;;5099342;22;21070;-82
2021/09/04 09:34:12;;;;;;;8.90;7.83;;;21.20;55.10;;;;;;5088496;28;20458;-83
2021/09/04 09:36:52;;;;;;;9.90;8.03;;;21.20;55.00;;;;;;5085288;28;20508;-83
2021/09/04 09:39:20;;;;;;;9.83;8.37;;;21.30;55.90;;;;;;5065563;28;20966;-83
2021/09/04 09:41:51;;;;;;;10.87;8.13;;;21.50;54.60;;;;;;5065744;28;20488;-84
2021/09/04 09:44:19;;;;;;;8.57;7.77;;;21.50;55.00;;;;;;5070256;28;20467;-84
2021/09/04 09:46:51;;;;;;;10.97;8.40;;;21.80;53.80;;;;;;5071164;28;20455;-83
2021/09/04 09:49:25;;;;;;;9.33;8.37;;;21.70;54.60;;;;;;5072287;28;20454;-83
2021/09/04 09:51:55;;;;;;;9.57;8.33;;;21.60;54.60;;;;;;5075874;28;20504;-83
2021/09/04 09:54:23;;;;;;;8.90;7.43;;;21.80;52.60;;;;;;5093287;28;20429;-83
2021/09/04 09:56:50;;;;;;;8.83;8.00;;;21.70;53.10;;;;;;5091901;28;20434;-83
2021/09/04 09:59:28;;;;;;;8.57;7.37;;;21.70;53.50;;;;;;5080482;28;20485;-82
2021/09/04 10:01:56;;;;;;;8.67;7.30;;;22.10;52.50;;;;;;5092152;28;20688;-82
2021/09/04 10:04:29;;;;;;;8.67;7.87;;;22.40;52.40;;;;;;5085489;28;20458;-84
2021/09/04 10:06:56;;;;;;;8.27;7.33;;;22.70;51.40;;;;;;5079889;28;20445;-83
2021/09/04 10:09:24;;;;;;;8.00;7.20;;;22.80;51.50;;;;;;5063483;28;20454;-82
2021/09/04 10:11:52;;;;;;;8.13;7.33;;;22.80;50.90;;;;;;5061331;28;20536;-84
2021/09/04 10:14:19;;;;;;;7.53;6.80;;;22.70;51.40;;;;;;5064396;28;20431;-84
2021/09/04 10:16:48;;;;;;;7.57;6.77;;;22.70;51.40;;;;;;5062834;28;20476;-84
2021/09/04 10:19:18;;;;;;;8.83;8.00;;;22.80;51.10;;;;;;5061355;28;20498;-83
2021/09/04 10:21:46;;;;;;;16.90;7.70;;;22.80;50.10;;;;;;5062429;28;20466;-83
2021/09/04 10:24:14;;;;;;;9.13;6.90;;;22.60;51.30;;;;;;5061256;28;20475;-83
2021/09/04 10:26:43;;;;;;;8.50;7.70;;;22.90;50.80;;;;;;5061403;28;20805;-83
2021/09/04 10:29:12;;;;;;;9.00;7.47;;;22.80;50.10;;;;;;5064605;28;20909;-82
2021/09/04 10:31:54;;;;;;;11.00;7.63;;;22.90;49.80;;;;;;5067464;28;20526;-83
2021/09/04 10:34:27;;;;;;;10.77;7.60;;;23.00;49.80;;;;;;5069272;28;20473;-82
2021/09/04 10:37:07;;;;;;;7.90;7.10;;;23.20;48.50;;;;;;5071703;28;20456;-83
2021/09/04 10:39:54;;;;;;;9.30;7.17;;;23.40;47.70;;;;;;5062785;28;20492;-83
2021/09/04 10:42:27;;;;;;;7.93;7.13;;;23.50;47.10;;;;;;5059271;28;20998;-82
2021/09/04 10:44:59;;;;;;;7.73;7.03;;;23.60;46.40;;;;;;5059809;28;20432;-82
2021/09/04 10:47:26;;;;;;;7.93;7.13;;;23.30;45.60;;;;;;5059578;28;20456;-82
2021/09/04 10:49:56;;;;;;;10.63;6.80;;;23.40;47.00;;;;;;5060967;28;20459;-83
2021/09/04 10:53:04;;;;;;;7.43;6.73;;;23.70;46.60;;;;;;5063958;28;20463;-83
2021/09/04 10:55:32;;;;;;;6.93;6.33;;;24.00;45.10;;;;;;5068279;28;20464;-82
2021/09/04 10:58:09;;;;;;;7.27;6.57;;;24.20;44.60;;;;;;5062588;28;20424;-83
2021/09/04 11:00:41;;;;;;;7.17;6.10;;;24.00;43.70;;;;;;5049071;28;20492;-82
2021/09/04 11:03:09;;;;;;;7.87;6.30;;;23.90;43.30;;;;;;5051479;28;20808;-82
2021/09/04 11:05:45;;;;;;;6.73;6.00;;;24.00;43.60;;;;;;5040287;28;20420;-82
2021/09/04 11:08:14;;;;;;;6.80;5.90;;;24.30;42.80;;;;;;5055930;28;20428;-81
2021/09/04 11:10:43;;;;;;;6.03;5.50;;;24.30;41.50;;;;;;5047081;28;20432;-84
2021/09/04 11:13:36;;;;;;;6.80;6.00;;;24.30;42.30;;;;;;5040950;28;20478;-84
2021/09/04 11:16:36;;;;;;;6.93;6.27;;;24.30;42.80;;;;;;5041937;28;20972;-84
2021/09/04 11:19:09;;;;;;;7.07;6.20;;;24.60;41.80;;;;;;5078726;28;20422;-81
2021/09/04 11:21:45;;;;;;;6.87;5.63;;;24.80;40.00;;;;;;5082997;28;20547;-83
2021/09/04 11:24:19;;;;;;;9.50;5.50;;;24.90;39.10;;;;;;5079441;28;20948;-83
2021/09/04 11:26:50;;;;;;;5.43;5.00;;;24.90;38.50;;;;;;5078238;28;20884;-83
2021/09/04 11:29:17;;;;;;;6.60;5.70;;;25.00;38.70;;;;;;5079131;28;20902;-83
2021/09/04 11:31:52;;;;;;;5.90;5.40;;;25.00;38.20;;;;;;5079634;28;20458;-83
2021/09/04 11:34:19;;;;;;;7.97;6.13;;;24.80;39.00;;;;;;5060358;28;20555;-83
2021/09/04 11:36:45;;;;;;;5.57;5.07;;;24.80;38.60;;;;;;5060360;28;20458;-83
2021/09/04 11:39:14;;;;;;;6.50;5.23;;;24.90;37.70;;;;;;5074919;28;20449;-83
2021/09/04 11:41:47;;;;;;;6.37;4.80;;;25.20;35.80;;;;;;5082717;28;20755;-82
2021/09/04 11:44:19;;;;;;;5.50;5.00;;;25.40;35.40;;;;;;5081259;28;20511;-81
2021/09/04 11:46:46;;;;;;;6.97;5.90;;;25.40;35.70;;;;;;5082239;28;20482;-81
2021/09/04 11:49:13;;;;;;;5.70;5.07;;;25.40;35.30;;;;;;5066324;28;20445;-82
2021/09/04 11:51:56;;;;;;;6.40;5.00;;;25.30;35.50;;;;;;5061715;28;20447;-83
2021/09/04 11:54:29;;;;;;;6.63;5.07;;;25.30;34.40;;;;;;5062244;28;20443;-82
2021/09/04 11:56:56;;;;;;;5.60;5.10;;;25.40;33.40;;;;;;5057622;28;20458;-82
2021/09/04 11:59:24;;;;;;;6.30;5.70;;;25.40;33.40;;;;;;5067526;28;20451;-81
2021/09/04 12:01:51;;;;;;;5.40;4.90;;;25.50;33.50;;;;;;5081207;28;20946;-82
2021/09/04 12:04:18;;;;;;;5.97;4.50;;;25.40;33.40;;;;;;5077112;28;20458;-81
2021/09/04 12:06:47;;;;;;;5.70;5.10;;;25.50;32.20;;;;;;5076321;28;20453;-82
2021/09/04 12:09:15;;;;;;;6.23;5.00;;;25.70;30.80;;;;;;5078892;28;20423;-81
2021/09/04 12:11:43;;;;;;;5.70;4.30;;;25.80;30.60;;;;;;5061530;28;20432;-81
2021/09/04 12:14:11;;;;;;;6.53;4.80;;;25.90;30.00;;;;;;5058130;28;20432;-81
2021/09/04 12:16:38;;;;;;;5.93;5.33;;;25.70;31.70;;;;;;5061906;28;20460;-82
2021/09/04 12:19:17;;;;;;;5.30;4.80;;;25.50;31.70;;;;;;5058265;28;20970;-81
2021/09/04 12:21:51;;;;;;;7.00;5.57;;;25.50;32.00;;;;;;5059963;28;20464;-82
2021/09/04 12:24:18;;;;;;;4.80;4.40;;;25.60;32.00;;;;;;5059449;28;20433;-82
2021/09/04 12:26:53;;;;;;;4.80;4.40;;;25.70;29.70;;;;;;5062254;28;20514;-81
2021/09/04 12:29:27;;;;;;;5.40;4.90;;;26.00;30.20;;;;;;5059050;28;20558;-81
2021/09/04 12:32:04;;;;;;;5.07;4.60;;;26.20;29.30;;;;;;5044038;28;20841;-81
2021/09/04 12:34:32;;;;;;;5.30;4.70;;;25.90;29.90;;;;;;5058770;28;20479;-83
2021/09/04 12:36:59;;;;;;;5.10;4.60;;;25.80;29.80;;;;;;5058675;28;20429;-82
2021/09/04 12:39:29;;;;;;;4.87;4.30;;;26.00;29.70;;;;;;5058245;28;20662;-82
2021/09/04 12:42:05;;;;;;;5.27;4.77;;;25.70;29.80;;;;;;5056341;28;20462;-82
2021/09/04 12:44:39;;;;;;;5.07;4.57;;;25.50;30.50;;;;;;5057458;28;20445;-82
2021/09/04 12:47:07;;;;;;;4.87;4.40;;;25.70;30.30;;;;;;5057738;28;20923;-82
2021/09/04 12:49:36;;;;;;;4.87;4.37;;;25.90;29.00;;;;;;5058556;28;20464;-83
2021/09/04 12:52:11;;;;;;;4.40;4.00;;;26.10;28.90;;;;;;5060393;28;20455;-83
2021/09/04 12:54:40;;;;;;;4.70;4.30;;;26.30;28.50;;;;;;5060444;28;20459;-82
2021/09/04 12:57:16;;;;;;;5.73;4.20;;;26.30;28.10;;;;;;5078484;28;20511;-83
2021/09/04 12:59:51;;;;;;;4.33;4.00;;;26.00;27.90;;;;;;5076561;28;20462;-82
2021/09/04 13:02:24;;;;;;;6.00;3.97;;;26.10;27.50;;;;;;5066396;28;20550;-83
2021/09/04 13:04:54;;;;;;;6.13;4.17;;;26.20;26.50;;;;;;5065385;28;20464;-83